METAR Data
IDs: Format: Raw Decoded Include TAF

Data at: 0307 UTC 25 Jan 2020

METAR for:KCID (Cedar Rapids/E Iowao, IA, US)
Text:KCID 250252Z 33009KT 4SM BR OVC008 00/M01 A2987 RMK AO2 SLP125 60000 I3001 T00001006 51004
Temperature: 0.0°C ( 32°F)
Dewpoint: -0.6°C ( 31°F) [RH = 96%]
Pressure (altimeter):29.87 inches Hg (1011.6 mb) [Sea level pressure: 1012.5 mb]
Winds:from the NNW (330 degrees) at 10 MPH (9 knots; 4.6 m/s)
Visibility: 4 sm ( 6 km)
Ceiling:800 feet AGL
Clouds: overcast cloud deck at 800 feet AGL
Weather:BR (mist)